West Branch, Michigan
Current Conditions -  °F | °C
As of 9:53 AM on Saturday 25 Oct 2014 (Local Time) from KHTL Reporting Station
Clear Clear  
Wind Chill: 55°   Ceiling: Unl
Heat Index: 55°   Visibility: 9mi
Dew Point: 49°   Wind: 13mph
Humidity: 80%   Direction: 280°W
Pressure: 29.75"   Gusts: NA
Location:  44.28°N, 84.24°W
Report Text: KHTL 251353Z AUTO 28011KT 9SM CLR 13/09 A2975 RMK AO2 SLP077 T01280094
Loading
Personal Weather Stations






























Interactive Weather Map
Tropical Storm Tracking
New forecast layout! Learn more

10-Day Weather Forecast

Advertisements
Track Severe Weather on mobile